createdAt,value
2023-04-13T00:00:38.644Z,85.39
2023-04-13T00:01:38.656Z,85.50
2023-04-13T00:02:38.706Z,85.50
2023-04-13T00:03:38.699Z,85.50
2023-04-13T00:04:38.601Z,85.39
2023-04-13T00:05:38.680Z,85.39
2023-04-13T00:06:38.581Z,85.39
2023-04-13T00:07:38.600Z,85.50
2023-04-13T00:08:38.680Z,84.78
2023-04-13T00:09:38.565Z,85.30
2023-04-13T00:10:38.565Z,85.39
2023-04-13T00:11:38.567Z,84.64
2023-04-13T00:12:38.516Z,84.88
2023-04-13T00:13:38.499Z,84.47
2023-04-13T00:14:38.513Z,84.67
2023-04-13T00:15:38.483Z,84.84
2023-04-13T00:16:38.516Z,84.94
2023-04-13T00:17:38.466Z,85.19
2023-04-13T00:18:38.443Z,85.15
2023-04-13T00:19:38.430Z,84.94
2023-04-13T00:20:38.439Z,85.05
2023-04-13T00:21:38.418Z,84.27
2023-04-13T00:22:38.406Z,84.27
2023-04-13T00:23:38.391Z,85.05
2023-04-13T00:24:38.398Z,84.22
2023-04-13T00:25:38.363Z,84.78
2023-04-13T00:26:38.373Z,84.84
2023-04-13T00:27:38.356Z,83.91
2023-04-13T00:28:38.336Z,84.43
2023-04-13T00:29:38.327Z,83.91
2023-04-13T00:30:38.411Z,84.74
2023-04-13T00:31:38.302Z,84.84
2023-04-13T00:32:38.317Z,84.33
2023-04-13T00:33:38.282Z,84.01
2023-04-13T00:34:38.270Z,84.22
2023-04-13T00:35:38.254Z,84.64
2023-04-13T00:36:38.246Z,84.53
2023-04-13T00:37:45.173Z,83.81
2023-04-13T00:38:38.352Z,84.53
2023-04-13T00:39:38.210Z,85.05
2023-04-13T00:40:38.237Z,84.64
2023-04-13T00:41:38.189Z,85.15
2023-04-13T00:42:38.181Z,85.36
2023-04-13T00:43:38.191Z,85.05
2023-04-13T00:44:38.163Z,85.77
2023-04-13T00:45:38.145Z,86.08
2023-04-13T00:46:38.206Z,86.39
2023-04-13T00:47:38.180Z,86.80
2023-04-13T00:48:38.128Z,86.60
2023-04-13T00:49:38.123Z,87.11
2023-04-13T00:50:38.096Z,87.46
2023-04-13T00:51:38.088Z,87.52
2023-04-13T00:52:38.090Z,87.87
2023-04-13T00:53:38.058Z,87.87
2023-04-13T00:54:38.048Z,87.63
2023-04-13T00:55:38.057Z,88.65
2023-04-13T00:56:38.062Z,88.96
2023-04-13T00:57:38.012Z,89.62
2023-04-13T00:58:38.012Z,89.22
2023-04-13T00:59:37.989Z,89.32
2023-04-13T01:00:37.997Z,89.52
2023-04-13T01:01:38.002Z,89.73
2023-04-13T01:02:38.034Z,89.62
2023-04-13T01:03:38.010Z,89.62
2023-04-13T01:04:38.013Z,89.94
2023-04-13T01:05:37.926Z,89.42
2023-04-13T01:06:37.931Z,90.14
2023-04-13T01:07:37.909Z,90.04
2023-04-13T01:08:37.908Z,90.66
2023-04-13T01:09:37.881Z,91.07
2023-04-13T01:10:37.879Z,91.17
2023-04-13T01:11:37.863Z,91.17
2023-04-13T01:12:37.877Z,90.97
2023-04-13T01:13:37.844Z,91.58
2023-04-13T01:14:37.829Z,92.35
2023-04-13T01:15:37.961Z,92.35
2023-04-13T01:16:37.806Z,92.76
2023-04-13T01:17:37.846Z,92.66
2023-04-13T01:18:37.782Z,92.76
2023-04-13T01:19:37.787Z,92.55
2023-04-13T01:20:37.762Z,92.55
2023-04-13T01:21:37.758Z,93.38
2023-04-13T01:22:37.740Z,93.49
2023-04-13T01:23:37.728Z,93.18
2023-04-13T01:24:37.719Z,93.69
2023-04-13T01:25:37.715Z,93.38
2023-04-13T01:26:37.714Z,93.18
2023-04-13T01:27:37.682Z,94.00
2023-04-13T01:28:37.699Z,94.52
2023-04-13T01:29:37.666Z,93.69
2023-04-13T01:30:37.648Z,93.69
2023-04-13T01:31:37.706Z,94.52
2023-04-13T01:32:37.654Z,94.62
2023-04-13T01:33:37.616Z,94.21
2023-04-13T01:34:37.613Z,94.42
2023-04-13T01:35:37.593Z,94.21
2023-04-13T01:36:37.626Z,94.62
2023-04-13T01:37:37.580Z,94.52
2023-04-13T01:38:37.575Z,94.42
2023-04-13T01:39:37.550Z,94.31
2023-04-13T01:40:37.545Z,94.93
2023-04-13T01:41:37.525Z,94.93
2023-04-13T01:42:37.532Z,94.82
2023-04-13T01:43:37.504Z,94.42
2023-04-13T01:44:37.522Z,94.42
2023-04-13T01:45:37.504Z,94.93
2023-04-13T01:46:37.518Z,94.62
2023-04-13T01:47:37.574Z,94.93
2023-04-13T01:48:37.462Z,94.82
2023-04-13T01:49:37.443Z,94.21
2023-04-13T01:50:37.428Z,94.10
2023-04-13T01:51:37.427Z,94.52
2023-04-13T01:52:37.404Z,94.31
2023-04-13T01:53:37.401Z,93.90
2023-04-13T01:54:37.382Z,94.52
2023-04-13T01:55:37.385Z,94.31
2023-04-13T01:56:37.361Z,94.62
2023-04-13T01:57:37.387Z,94.52
2023-04-13T01:58:37.340Z,94.21
2023-04-13T01:59:37.330Z,94.42
2023-04-13T02:00:37.457Z,94.21
2023-04-13T02:01:37.312Z,95.03
2023-04-13T02:02:37.441Z,94.93
2023-04-13T02:03:37.488Z,94.72
2023-04-13T02:04:37.273Z,95.03
2023-04-13T02:05:37.298Z,95.14
2023-04-13T02:06:37.279Z,95.76
2023-04-13T02:07:37.258Z,95.76
2023-04-13T02:08:37.242Z,95.55
2023-04-13T02:09:37.228Z,95.45
2023-04-13T02:10:37.210Z,95.34
2023-04-13T02:11:37.197Z,95.65
2023-04-13T02:12:37.191Z,95.76
2023-04-13T02:13:37.201Z,95.76
2023-04-13T02:14:37.175Z,95.65
2023-04-13T02:15:37.154Z,95.03
2023-04-13T02:16:37.294Z,95.55
2023-04-13T02:17:37.166Z,95.76
2023-04-13T02:18:37.130Z,96.17
2023-04-13T02:19:37.131Z,95.76
2023-04-13T02:20:37.108Z,95.86
2023-04-13T02:21:37.135Z,95.55
2023-04-13T02:22:37.077Z,95.86
2023-04-13T02:23:37.062Z,95.55
2023-04-13T02:24:37.098Z,95.03
2023-04-13T02:25:37.047Z,94.82
2023-04-13T02:26:37.033Z,94.72
2023-04-13T02:27:37.035Z,94.82
2023-04-13T02:28:37.670Z,95.24
2023-04-13T02:29:37.012Z,95.03
2023-04-13T02:30:36.990Z,95.20
2023-04-13T02:31:37.032Z,94.93
2023-04-13T02:32:36.999Z,94.93
2023-04-13T02:33:36.950Z,94.89
2023-04-13T02:34:36.962Z,95.34
2023-04-13T02:35:36.930Z,96.12
2023-04-13T02:36:36.953Z,95.92
2023-04-13T02:37:36.935Z,95.92
2023-04-13T02:38:36.903Z,95.96
2023-04-13T02:39:36.885Z,95.76
2023-04-13T02:40:36.885Z,95.61
2023-04-13T02:41:36.865Z,95.92
2023-04-13T02:42:36.879Z,96.23
2023-04-13T02:43:36.867Z,95.20
2023-04-13T02:44:36.835Z,95.50
2023-04-13T02:45:36.876Z,95.71
2023-04-13T02:46:36.811Z,95.50
2023-04-13T02:47:36.838Z,95.40
2023-04-13T02:48:36.817Z,95.50
2023-04-13T02:49:36.784Z,95.20
2023-04-13T02:50:36.769Z,95.30
2023-04-13T02:51:36.751Z,95.71
2023-04-13T02:52:36.756Z,95.81
2023-04-13T02:53:36.730Z,95.09
2023-04-13T02:54:36.760Z,95.50
2023-04-13T02:55:36.718Z,95.40
2023-04-13T02:56:36.700Z,95.92
2023-04-13T02:57:36.684Z,95.61
2023-04-13T02:58:36.676Z,96.02
2023-04-13T02:59:36.683Z,96.33
2023-04-13T03:00:36.668Z,96.33
2023-04-13T03:01:36.667Z,95.71
2023-04-13T03:02:36.739Z,95.61
2023-04-13T03:03:36.634Z,95.92
2023-04-13T03:04:36.673Z,95.40
2023-04-13T03:05:36.621Z,95.71
2023-04-13T03:06:36.609Z,94.68
2023-04-13T03:07:36.597Z,94.68
2023-04-13T03:08:36.572Z,95.50
2023-04-13T03:09:36.553Z,95.71
2023-04-13T03:10:36.545Z,95.61
2023-04-13T03:11:36.567Z,95.71
2023-04-13T03:12:36.529Z,95.71
2023-04-13T03:13:36.509Z,95.40
2023-04-13T03:14:36.504Z,96.33
2023-04-13T03:15:36.488Z,95.30
2023-04-13T03:16:36.512Z,95.92
2023-04-13T03:17:36.492Z,95.71
2023-04-13T03:18:36.480Z,96.02
2023-04-13T03:19:36.445Z,96.02
2023-04-13T03:20:36.484Z,96.23
2023-04-13T03:21:36.429Z,96.12
2023-04-13T03:22:36.427Z,96.23
2023-04-13T03:23:36.449Z,96.53
2023-04-13T03:24:36.415Z,96.84
2023-04-13T03:25:36.382Z,96.95
2023-04-13T03:26:36.382Z,96.74
2023-04-13T03:27:36.363Z,96.74
2023-04-13T03:28:36.354Z,96.84
2023-04-13T03:29:36.346Z,97.05
2023-04-13T03:30:36.328Z,97.05
2023-04-13T03:31:36.481Z,97.20
2023-04-13T03:32:36.360Z,97.47
2023-04-13T03:33:36.297Z,97.77
2023-04-13T03:34:36.285Z,97.98
2023-04-13T03:35:36.319Z,97.77
2023-04-13T03:36:36.284Z,97.98
2023-04-13T03:37:36.251Z,97.88
2023-04-13T03:38:36.240Z,98.08
2023-04-13T03:39:36.235Z,98.33
2023-04-13T03:40:36.223Z,97.47
2023-04-13T03:41:36.229Z,97.26
2023-04-13T03:42:36.192Z,98.29
2023-04-13T03:43:36.188Z,97.47
2023-04-13T03:44:36.174Z,97.47
2023-04-13T03:45:36.172Z,97.98
2023-04-13T03:46:36.214Z,97.88
2023-04-13T03:47:36.167Z,98.08
2023-04-13T03:48:36.130Z,98.29
2023-04-13T03:49:36.121Z,98.29
2023-04-13T03:50:36.135Z,98.70
2023-04-13T03:51:36.100Z,98.75
2023-04-13T03:52:36.131Z,98.50
2023-04-13T03:53:36.105Z,97.88
2023-04-13T03:54:36.128Z,98.19
2023-04-13T03:55:36.059Z,98.33
2023-04-13T03:56:36.054Z,98.70
2023-04-13T03:57:36.060Z,98.91
2023-04-13T03:58:36.036Z,99.01
2023-04-13T03:59:36.020Z,99.22
2023-04-13T04:00:35.997Z,98.80
2023-04-13T04:01:35.994Z,98.91
2023-04-13T04:02:36.199Z,98.96
2023-04-13T04:03:36.159Z,98.85
2023-04-13T04:04:36.034Z,98.85
2023-04-13T04:05:35.969Z,98.91
2023-04-13T04:06:35.926Z,99.22
2023-04-13T04:07:35.961Z,99.11
2023-04-13T04:08:35.930Z,99.32
2023-04-13T04:09:35.923Z,99.52
2023-04-13T04:10:35.901Z,99.52
2023-04-13T04:11:35.885Z,99.22
2023-04-13T04:12:35.888Z,99.73
2023-04-13T04:13:35.866Z,99.22
2023-04-13T04:14:35.843Z,99.52
2023-04-13T04:15:35.843Z,99.32
2023-04-13T04:16:35.898Z,99.52
2023-04-13T04:17:37.324Z,99.52
2023-04-13T04:18:35.816Z,99.63
2023-04-13T04:19:35.787Z,99.63
2023-04-13T04:20:35.775Z,99.73
2023-04-13T04:21:35.785Z,99.73
2023-04-13T04:22:35.754Z,99.52
2023-04-13T04:23:35.745Z,99.52
2023-04-13T04:24:35.767Z,99.52
2023-04-13T04:25:35.722Z,99.52
2023-04-13T04:26:35.733Z,99.43
2023-04-13T04:27:35.728Z,99.52
2023-04-13T04:28:35.683Z,99.84
2023-04-13T04:29:35.703Z,99.63
2023-04-13T04:30:35.675Z,99.73
2023-04-13T04:31:37.375Z,99.84
2023-04-13T04:32:35.690Z,99.94
2023-04-13T04:33:35.682Z,99.99
2023-04-13T04:34:35.638Z,99.99
2023-04-13T04:35:35.613Z,99.99
2023-04-13T04:36:35.602Z,99.99
2023-04-13T04:37:35.599Z,99.63
2023-04-13T04:38:35.596Z,99.99
2023-04-13T04:39:35.581Z,99.99
2023-04-13T04:40:35.579Z,99.99
2023-04-13T04:41:35.550Z,99.99
2023-04-13T04:42:35.562Z,99.99
2023-04-13T04:43:35.527Z,99.99
2023-04-13T04:44:35.563Z,99.99
2023-04-13T04:45:35.526Z,99.99
2023-04-13T04:46:35.489Z,99.99
2023-04-13T04:47:35.502Z,99.99
2023-04-13T04:48:35.473Z,99.99
2023-04-13T04:49:35.461Z,99.99
2023-04-13T04:50:35.464Z,99.99
2023-04-13T04:51:35.443Z,99.84
2023-04-13T04:52:35.433Z,99.99
2023-04-13T04:53:35.415Z,99.99
2023-04-13T04:54:35.404Z,99.99
2023-04-13T04:55:35.405Z,99.99
2023-04-13T04:56:35.411Z,99.99
2023-04-13T04:57:35.372Z,99.99
2023-04-13T04:58:35.356Z,99.99
2023-04-13T04:59:35.351Z,99.99
2023-04-13T05:00:35.358Z,99.99
2023-04-13T05:01:35.358Z,99.99
2023-04-13T05:02:35.557Z,99.43
2023-04-13T05:03:35.314Z,99.63
2023-04-13T05:04:35.333Z,99.57
2023-04-13T05:11:22.398Z,99.63
2023-04-13T05:12:22.362Z,99.73
2023-04-13T05:13:22.331Z,99.52
2023-04-13T05:14:22.340Z,99.52
2023-04-13T05:15:22.311Z,99.43
2023-04-13T05:16:22.335Z,99.52
2023-04-13T05:17:22.328Z,99.11
2023-04-13T05:18:22.290Z,99.01
2023-04-13T05:19:22.258Z,98.91
2023-04-13T05:20:22.250Z,98.91
2023-04-13T05:21:22.246Z,99.01
2023-04-13T05:22:22.238Z,99.01
2023-04-13T05:23:22.243Z,99.01
2023-04-13T05:24:22.230Z,99.01
2023-04-13T05:25:22.210Z,98.39
2023-04-13T05:26:22.189Z,97.98
2023-04-13T05:27:22.171Z,98.19
2023-04-13T05:28:22.179Z,98.60
2023-04-13T05:29:22.151Z,97.88
2023-04-13T05:30:22.137Z,97.77
2023-04-13T05:31:22.157Z,98.08
2023-04-13T05:32:22.132Z,98.19
2023-04-13T05:33:22.115Z,98.29
2023-04-13T05:34:22.103Z,98.60
2023-04-13T05:35:22.086Z,98.29
2023-04-13T05:36:22.076Z,98.19
2023-04-13T05:37:22.067Z,98.70
2023-04-13T05:38:22.072Z,98.29
2023-04-13T05:39:22.056Z,98.08
2023-04-13T05:40:22.029Z,98.70
2023-04-13T05:41:22.018Z,98.70
2023-04-13T05:42:22.004Z,98.60
2023-04-13T05:43:23.833Z,98.50
2023-04-13T05:44:22.012Z,98.50
2023-04-13T05:45:21.981Z,98.70
2023-04-13T05:46:22.034Z,98.19
2023-04-13T05:47:22.011Z,98.08
2023-04-13T05:48:21.949Z,98.39
2023-04-13T05:49:21.936Z,98.70
2023-04-13T05:50:21.919Z,98.39
2023-04-13T05:51:21.907Z,98.24
2023-04-13T05:52:21.945Z,98.55
2023-04-13T05:53:21.897Z,98.66
2023-04-13T05:54:21.864Z,97.83
2023-04-13T05:55:21.868Z,97.73
2023-04-13T05:56:21.841Z,97.21
2023-04-13T05:57:21.868Z,97.73
2023-04-13T05:58:21.832Z,97.73
2023-04-13T05:59:21.823Z,97.73
2023-04-13T06:00:21.815Z,98.14
2023-04-13T06:01:21.794Z,97.94
2023-04-13T06:02:21.904Z,97.21
2023-04-13T06:03:22.118Z,97.42
2023-04-13T06:04:21.901Z,96.91
2023-04-13T06:05:21.829Z,96.80
2023-04-13T06:06:21.733Z,97.01
2023-04-13T06:07:21.730Z,97.06
2023-04-13T06:08:21.724Z,96.77
2023-04-13T06:09:21.693Z,95.34
2023-04-13T06:10:21.732Z,93.76
2023-04-13T06:11:21.677Z,93.14
2023-04-13T06:12:21.674Z,92.32
2023-04-13T06:13:21.661Z,91.04
2023-04-13T06:14:21.642Z,90.55
2023-04-13T06:15:21.636Z,89.01
2023-04-13T06:16:21.706Z,89.07
2023-04-13T06:17:21.669Z,89.21
2023-04-13T06:18:21.611Z,89.25
2023-04-13T06:19:21.581Z,89.50
2023-04-13T06:20:21.641Z,90.28
2023-04-13T06:21:21.637Z,89.11
2023-04-13T06:22:21.541Z,89.31
2023-04-13T06:23:21.533Z,88.95
2023-04-13T06:24:21.539Z,90.01
2023-04-13T06:25:21.514Z,90.57
2023-04-13T06:26:21.512Z,90.78
2023-04-13T06:27:21.501Z,90.95
2023-04-13T06:28:21.474Z,89.69
2023-04-13T06:29:21.506Z,89.72
2023-04-13T06:30:21.450Z,89.52
2023-04-13T06:31:21.525Z,89.87
2023-04-13T06:32:21.591Z,89.60
2023-04-13T06:33:21.433Z,90.63
2023-04-13T06:34:21.407Z,91.25
2023-04-13T06:35:21.427Z,90.78
2023-04-13T06:36:21.399Z,90.92
2023-04-13T06:37:21.376Z,91.49
2023-04-13T06:38:21.396Z,92.67
2023-04-13T06:39:21.372Z,92.25
2023-04-13T06:40:21.352Z,92.40
2023-04-13T06:41:21.362Z,93.33
2023-04-13T06:42:21.320Z,93.96
2023-04-13T06:43:28.997Z,92.21
2023-04-13T06:44:22.295Z,92.05
2023-04-13T06:45:21.286Z,92.25
2023-04-13T06:46:21.358Z,92.10
2023-04-13T06:47:21.303Z,91.99
2023-04-13T06:48:21.270Z,92.71
2023-04-13T06:49:21.260Z,93.08
2023-04-13T06:50:21.228Z,92.36
2023-04-13T06:51:21.228Z,90.98
2023-04-13T06:52:21.229Z,90.98
2023-04-13T06:53:21.199Z,91.29
2023-04-13T06:54:21.190Z,91.53
2023-04-13T06:55:21.180Z,92.05
2023-04-13T06:56:21.158Z,92.16
2023-04-13T06:57:21.193Z,92.46
2023-04-13T06:58:21.145Z,92.67
2023-04-13T06:59:21.135Z,92.36
2023-04-13T07:00:29.550Z,91.95
2023-04-13T07:01:22.196Z,91.39
2023-04-13T07:02:21.228Z,90.59
2023-04-13T07:03:21.322Z,88.70
2023-04-13T07:04:21.201Z,87.02
2023-04-13T07:05:21.063Z,85.80
2023-04-13T07:06:21.046Z,83.96
2023-04-13T07:07:21.060Z,84.61
2023-04-13T07:08:21.028Z,84.58
2023-04-13T07:09:21.054Z,83.41
2023-04-13T07:10:21.007Z,82.35
2023-04-13T07:11:20.999Z,81.29
2023-04-13T07:12:20.980Z,81.95
2023-04-13T07:13:20.990Z,82.42
2023-04-13T07:14:21.011Z,82.53
2023-04-13T07:15:20.962Z,83.07
2023-04-13T07:16:20.976Z,82.73
2023-04-13T07:17:20.940Z,83.10
2023-04-13T07:18:20.937Z,82.76
2023-04-13T07:19:20.921Z,82.71
2023-04-13T07:20:20.921Z,82.71
2023-04-13T07:21:20.887Z,82.62
2023-04-13T07:22:20.873Z,80.40
2023-04-13T07:23:20.874Z,80.40
2023-04-13T07:24:20.874Z,81.46
2023-04-13T07:25:20.843Z,81.77
2023-04-13T07:26:20.839Z,83.10
2023-04-13T07:27:20.826Z,82.53
2023-04-13T07:28:20.826Z,82.90
2023-04-13T07:29:20.793Z,82.79
2023-04-13T07:30:20.777Z,82.65
2023-04-13T07:31:20.792Z,82.96
2023-04-13T07:32:21.334Z,82.55
2023-04-13T07:33:20.790Z,82.49
2023-04-13T07:34:20.736Z,83.00
2023-04-13T07:35:20.765Z,82.63
2023-04-13T07:36:20.730Z,82.53
2023-04-13T07:37:20.712Z,84.31
2023-04-13T07:38:20.717Z,83.83
2023-04-13T07:39:20.679Z,84.45
2023-04-13T07:40:20.708Z,84.66
2023-04-13T07:41:20.665Z,84.14
2023-04-13T07:42:20.640Z,84.55
2023-04-13T07:43:20.859Z,84.20
2023-04-13T07:44:20.630Z,83.55
2023-04-13T07:45:20.606Z,83.14
2023-04-13T07:46:20.622Z,82.73
2023-04-13T07:47:20.626Z,82.97
2023-04-13T07:48:20.592Z,82.56
2023-04-13T07:49:20.569Z,83.45
2023-04-13T07:50:20.560Z,82.73
2023-04-13T07:51:20.558Z,83.59
2023-04-13T07:52:20.706Z,82.77
2023-04-13T07:53:20.520Z,83.42
2023-04-13T07:54:20.538Z,83.73
2023-04-13T07:55:20.503Z,84.66
2023-04-13T07:56:20.495Z,84.55
2023-04-13T07:57:20.474Z,83.83
2023-04-13T07:58:20.472Z,84.69
2023-04-13T07:59:20.454Z,86.24
2023-04-13T08:00:20.683Z,85.93
2023-04-13T08:01:20.423Z,86.24
2023-04-13T08:02:20.542Z,86.68
2023-04-13T08:03:20.604Z,87.20
2023-04-13T08:04:20.557Z,88.27
2023-04-13T08:05:20.781Z,89.19
2023-04-13T08:06:20.370Z,89.81
2023-04-13T08:07:20.368Z,90.63
2023-04-13T08:08:20.387Z,91.19
2023-04-13T08:09:20.337Z,92.01
2023-04-13T08:10:20.322Z,92.32
2023-04-13T08:11:20.333Z,92.21
2023-04-13T08:12:20.351Z,92.42
2023-04-13T08:13:20.292Z,91.80
2023-04-13T08:14:20.303Z,92.05
2023-04-13T08:15:20.271Z,92.36
2023-04-13T08:16:20.298Z,92.25
2023-04-13T08:17:20.265Z,93.08
2023-04-13T08:18:20.277Z,93.18
2023-04-13T08:19:20.230Z,93.39
2023-04-13T08:20:20.210Z,93.70
2023-04-13T08:21:20.208Z,93.80
2023-04-13T08:22:20.197Z,93.76
2023-04-13T08:23:20.206Z,94.07
2023-04-13T08:24:20.190Z,94.07
2023-04-13T08:25:20.182Z,93.76
2023-04-13T08:26:20.149Z,94.31
2023-04-13T08:27:20.144Z,93.80
2023-04-13T08:28:20.128Z,94.31
2023-04-13T08:29:20.143Z,94.62
2023-04-13T08:30:20.099Z,94.52
2023-04-13T08:31:20.410Z,94.73
2023-04-13T08:32:20.163Z,95.03
2023-04-13T08:33:20.068Z,95.14
2023-04-13T08:34:20.069Z,96.06
2023-04-13T08:35:20.061Z,95.55
2023-04-13T08:36:20.043Z,96.21
2023-04-13T08:37:20.027Z,96.11
2023-04-13T08:38:20.020Z,96.15
2023-04-13T08:39:20.011Z,96.15
2023-04-13T08:40:20.007Z,96.00
2023-04-13T08:41:20.005Z,95.70
2023-04-13T08:42:19.966Z,96.21
2023-04-13T08:43:19.955Z,96.11
2023-04-13T08:44:19.955Z,96.83
2023-04-13T08:45:19.947Z,96.72
2023-04-13T08:46:19.981Z,96.72
2023-04-13T08:47:19.931Z,96.52
2023-04-13T08:48:19.894Z,96.72
2023-04-13T08:49:19.898Z,96.11
2023-04-13T08:50:19.882Z,96.62
2023-04-13T08:51:19.862Z,96.52
2023-04-13T08:52:19.860Z,96.62
2023-04-13T08:53:19.839Z,96.37
2023-04-13T08:54:19.823Z,96.68
2023-04-13T08:55:19.816Z,96.58
2023-04-13T08:56:20.655Z,96.62
2023-04-13T08:57:19.795Z,96.58
2023-04-13T08:58:19.780Z,96.47
2023-04-13T08:59:19.768Z,96.52
2023-04-13T09:00:19.777Z,96.42
2023-04-13T09:01:19.898Z,96.58
2023-04-13T09:02:19.852Z,96.78
2023-04-13T09:03:19.835Z,96.99
2023-04-13T09:04:20.022Z,96.58
2023-04-13T09:05:19.805Z,96.72
2023-04-13T09:06:19.704Z,96.72
2023-04-13T09:07:19.700Z,96.62
2023-04-13T09:08:19.684Z,97.14
2023-04-13T09:09:19.683Z,97.65
2023-04-13T09:10:19.646Z,97.55
2023-04-13T09:11:19.645Z,97.55
2023-04-13T09:12:19.645Z,97.61
2023-04-13T09:13:19.612Z,98.02
2023-04-13T09:14:19.605Z,97.44
2023-04-13T09:15:19.616Z,97.86
2023-04-13T09:16:19.636Z,97.75
2023-04-13T09:17:19.631Z,97.96
2023-04-13T09:18:19.556Z,97.86
2023-04-13T09:19:19.550Z,98.33
2023-04-13T09:20:19.595Z,98.12
2023-04-13T09:21:19.520Z,98.33
2023-04-13T09:22:19.556Z,97.87
2023-04-13T09:23:19.514Z,97.91
2023-04-13T09:24:19.489Z,98.33
2023-04-13T09:25:19.476Z,98.43
2023-04-13T09:26:19.468Z,98.43
2023-04-13T09:27:19.466Z,98.43
2023-04-13T09:28:19.579Z,98.22
2023-04-13T09:29:19.427Z,98.22
2023-04-13T09:30:19.437Z,98.22
2023-04-13T09:31:19.420Z,98.22
2023-04-13T09:32:19.420Z,97.91
2023-04-13T09:33:19.386Z,97.19
2023-04-13T09:34:19.399Z,97.36
2023-04-13T09:35:19.363Z,97.45
2023-04-13T09:36:19.360Z,97.92
2023-04-13T09:37:19.340Z,97.57
2023-04-13T09:38:19.353Z,97.67
2023-04-13T09:39:19.345Z,96.23
2023-04-13T09:40:19.393Z,95.37
2023-04-13T09:41:19.319Z,95.78
2023-04-13T09:42:19.289Z,94.76
2023-04-13T09:43:19.285Z,95.17
2023-04-13T09:44:19.301Z,94.40
2023-04-13T09:45:19.257Z,94.55
2023-04-13T09:46:19.269Z,94.04
2023-04-13T09:47:19.258Z,93.73
2023-04-13T09:48:19.224Z,94.04
2023-04-13T09:49:19.217Z,94.45
2023-04-13T09:50:19.297Z,94.24
2023-04-13T09:51:19.185Z,94.65
2023-04-13T09:52:19.177Z,94.40
2023-04-13T09:53:19.174Z,94.40
2023-04-13T09:54:19.153Z,93.85
2023-04-13T09:55:19.191Z,94.05
2023-04-13T09:56:19.130Z,93.13
2023-04-13T09:57:19.122Z,92.82
2023-04-13T09:58:19.108Z,92.61
2023-04-13T09:59:19.117Z,92.47
2023-04-13T10:00:19.644Z,92.68
2023-04-13T10:01:19.107Z,92.78
2023-04-13T10:02:19.175Z,92.16
2023-04-13T10:03:19.297Z,91.71
2023-04-13T10:04:19.045Z,91.03
2023-04-13T10:05:19.174Z,90.58
2023-04-13T10:06:19.019Z,90.42
2023-04-13T10:07:19.007Z,90.99
2023-04-13T10:08:24.396Z,91.09
2023-04-13T10:09:20.007Z,90.75
2023-04-13T10:10:18.976Z,90.48
2023-04-13T10:11:18.989Z,90.54
2023-04-13T10:12:18.951Z,90.50
2023-04-13T10:13:22.291Z,89.47
2023-04-13T10:14:19.958Z,89.42
2023-04-13T10:15:18.934Z,88.70
2023-04-13T10:16:18.963Z,89.15
2023-04-13T10:17:18.941Z,89.56
2023-04-13T10:18:18.939Z,89.25
2023-04-13T10:19:18.885Z,89.70
2023-04-13T10:20:18.859Z,89.19
2023-04-13T10:21:18.856Z,89.09
2023-04-13T10:22:18.838Z,89.39
2023-04-13T10:23:18.834Z,89.84
2023-04-13T10:24:18.821Z,89.95
2023-04-13T10:25:31.909Z,89.75
2023-04-13T10:26:19.799Z,89.70
2023-04-13T10:27:18.796Z,88.47
2023-04-13T10:28:18.799Z,88.78
2023-04-13T10:29:21.370Z,89.04
2023-04-13T10:30:18.748Z,88.84
2023-04-13T10:31:18.789Z,88.49
2023-04-13T10:32:18.756Z,87.98
2023-04-13T10:33:18.745Z,87.73
2023-04-13T10:34:18.701Z,86.91
2023-04-13T10:35:18.688Z,86.46
2023-04-13T10:36:18.684Z,86.77
2023-04-13T10:37:18.680Z,85.71
2023-04-13T10:38:18.656Z,85.20
2023-04-13T10:39:18.668Z,84.34
2023-04-13T10:40:18.630Z,82.87
2023-04-13T10:41:18.631Z,81.85
2023-04-13T10:42:18.621Z,82.12
2023-04-13T10:43:18.592Z,80.99
2023-04-13T10:44:18.587Z,81.71
2023-04-13T10:45:18.587Z,82.35
2023-04-13T10:46:18.599Z,82.35
2023-04-13T10:47:18.600Z,82.35
2023-04-13T10:48:18.577Z,79.90
2023-04-13T10:49:18.528Z,80.55
2023-04-13T10:50:18.544Z,79.63
2023-04-13T10:51:19.081Z,79.28
2023-04-13T10:52:18.645Z,77.04
2023-04-13T10:53:18.488Z,78.84
2023-04-13T10:54:18.470Z,78.94
2023-04-13T10:55:18.472Z,77.72
2023-04-13T10:56:18.476Z,78.64
2023-04-13T10:57:18.437Z,78.94
2023-04-13T10:58:18.466Z,79.11
2023-04-13T10:59:18.414Z,77.51
2023-04-13T11:00:18.403Z,76.70
2023-04-13T11:01:18.412Z,77.21
2023-04-13T11:02:18.477Z,76.84
2023-04-13T11:03:18.496Z,77.75
2023-04-13T11:04:19.009Z,76.73
2023-04-13T11:05:18.380Z,75.51
2023-04-13T11:06:18.336Z,75.61
2023-04-13T11:07:18.327Z,75.57
2023-04-13T11:08:18.333Z,75.57
2023-04-13T11:09:18.331Z,75.57
2023-04-13T11:10:18.295Z,75.34
2023-04-13T11:11:18.281Z,74.42
2023-04-13T11:12:25.697Z,73.81
2023-04-13T11:13:18.259Z,72.58
2023-04-13T11:14:19.332Z,73.26
2023-04-13T11:15:18.239Z,74.45
2023-04-13T11:16:18.245Z,74.35
2023-04-13T11:17:18.444Z,73.23
2023-04-13T11:18:18.213Z,72.55
2023-04-13T11:19:18.226Z,72.28
2023-04-13T11:20:18.270Z,73.23
2023-04-13T11:21:18.173Z,74.01
2023-04-13T11:22:18.163Z,74.93
2023-04-13T11:23:18.143Z,74.62
2023-04-13T11:24:18.135Z,75.03
2023-04-13T11:25:18.144Z,73.54
2023-04-13T11:26:18.113Z,73.19
2023-04-13T11:27:18.107Z,74.52
2023-04-13T11:28:18.091Z,73.81
2023-04-13T11:29:18.076Z,73.30
2023-04-13T11:30:18.069Z,73.81
2023-04-13T11:31:18.060Z,74.32
2023-04-13T11:32:18.214Z,74.52
2023-04-13T11:33:18.029Z,74.55
2023-04-13T11:34:18.022Z,74.49
2023-04-13T11:35:18.024Z,74.52
2023-04-13T11:36:18.020Z,75.75
2023-04-13T11:37:17.984Z,75.99
2023-04-13T11:38:17.982Z,76.19
2023-04-13T11:39:17.960Z,76.67
2023-04-13T11:40:17.970Z,76.16
2023-04-13T11:41:17.947Z,76.43
2023-04-13T11:42:17.929Z,74.73
2023-04-13T11:43:17.921Z,75.71
2023-04-13T11:44:17.905Z,75.92
2023-04-13T11:45:20.470Z,75.88
2023-04-13T11:46:17.909Z,75.57
2023-04-13T11:47:17.967Z,76.09
2023-04-13T11:48:17.881Z,75.57
2023-04-13T11:49:17.872Z,76.56
2023-04-13T11:50:17.862Z,74.32
2023-04-13T11:51:17.820Z,75.40
2023-04-13T11:52:17.862Z,73.16
2023-04-13T11:53:17.815Z,74.18
2023-04-13T11:54:17.812Z,73.16
2023-04-13T11:55:23.228Z,73.02
2023-04-13T11:56:18.769Z,73.33
2023-04-13T11:57:17.779Z,74.04
2023-04-13T11:58:17.752Z,73.33
2023-04-13T11:59:17.737Z,71.87
2023-04-13T12:00:17.720Z,71.39
2023-04-13T12:01:25.128Z,70.24
2023-04-13T12:02:22.793Z,69.73
2023-04-13T12:04:17.835Z,71.91
2023-04-13T12:05:17.988Z,70.78
2023-04-13T12:06:17.924Z,71.91
2023-04-13T12:07:17.886Z,70.58
2023-04-13T12:08:18.524Z,70.89
2023-04-13T12:09:20.539Z,70.38
2023-04-13T12:10:23.133Z,71.70
2023-04-13T12:12:50.764Z,69.97
2023-04-13T12:13:31.065Z,69.87
2023-04-13T12:14:38.529Z,69.87
2023-04-13T12:15:36.309Z,70.31
2023-04-13T12:16:21.593Z,70.31
2023-04-13T12:17:38.099Z,70.65
2023-04-13T12:18:23.642Z,71.06
2023-04-13T12:19:19.528Z,71.26
2023-04-13T12:20:17.633Z,71.91
2023-04-13T12:21:17.659Z,72.92
2023-04-13T12:22:17.652Z,73.06
2023-04-13T12:23:22.873Z,73.77
2023-04-13T12:24:19.089Z,74.79
2023-04-13T12:25:17.727Z,75.31
2023-04-13T12:26:49.901Z,75.54
2023-04-13T12:27:19.360Z,74.32
2023-04-13T12:28:17.408Z,74.66
2023-04-13T12:29:17.394Z,75.65
2023-04-13T12:30:17.387Z,76.29
2023-04-13T12:31:17.401Z,74.56
2023-04-13T12:32:17.562Z,75.85
2023-04-13T12:33:17.358Z,76.46
2023-04-13T12:34:17.341Z,76.67
2023-04-13T12:35:17.331Z,75.61
2023-04-13T12:36:17.333Z,72.75
2023-04-13T12:37:17.372Z,72.75
2023-04-13T12:38:17.294Z,72.86
2023-04-13T12:39:17.279Z,73.98
2023-04-13T12:40:17.300Z,73.33
2023-04-13T12:41:17.266Z,72.69
2023-04-13T12:42:17.270Z,72.17
2023-04-13T12:43:17.245Z,70.34
2023-04-13T12:44:17.237Z,70.34
2023-04-13T12:45:17.212Z,69.42
2023-04-13T12:46:17.229Z,69.90
2023-04-13T12:47:17.275Z,68.61
2023-04-13T12:48:17.264Z,69.15
2023-04-13T12:49:17.164Z,70.48
2023-04-13T12:50:17.160Z,71.94
2023-04-13T12:51:17.154Z,73.50
2023-04-13T12:52:17.154Z,77.28
2023-04-13T12:53:17.130Z,78.95
2023-04-13T12:54:17.112Z,79.16
2023-04-13T12:55:17.098Z,79.29
2023-04-13T12:56:17.128Z,80.83
2023-04-13T12:57:17.192Z,82.15
2023-04-13T12:58:17.083Z,82.15
2023-04-13T12:59:17.056Z,82.87
2023-04-13T13:00:17.059Z,82.91